Time;durP1;ratioP1;P1;durP2;ratioP2;P2;SDS_P1;SDS_P2;PMS_P1;PMS_P2;Temp;Humidity;BMP_temperature;BMP_pressure;BME280_temperature;BME280_humidity;BME280_pressure;Samples;Min_cycle;Max_cycle;Signal;HPM_P1;HPM_P2
2022/07/01 14:52:05;;;;;;;;;;;23.40;74.70;;;;;;5101999;22;19941;-92
2022/07/01 14:54:52;;;;;;;;;;;23.30;74.40;;;;;;5049497;28;19925;-90
2022/07/01 14:59:04;;;;;;;;;;;23.70;73.50;;;;;;5055850;23;19914;-87
2022/07/01 15:02:11;;;;;;;;;;;24.40;72.20;;;;;;5034221;28;19910;-87
2022/07/01 15:04:41;;;;;;;;;;;25.00;71.10;;;;;;4998800;28;19910;-87
2022/07/01 15:07:29;;;;;;;;;;;25.10;71.60;;;;;;5049557;28;19925;-88
2022/07/01 15:10:34;;;;;;;;;;;25.40;70.90;;;;;;5019981;28;19933;-86
2022/07/01 15:16:44;;;;;;;;;;;24.50;70.90;;;;;;5054786;28;19925;-87
2022/07/01 15:19:16;;;;;;;;;;;24.20;71.80;;;;;;5040487;28;19925;-87
2022/07/01 15:21:57;;;;;;;;;;;24.50;71.20;;;;;;5043201;28;19924;-88
2022/07/01 15:24:31;;;;;;;;;;;24.70;70.60;;;;;;5039450;28;19908;-88
2022/07/01 15:27:01;;;;;;;;;;;23.40;69.40;;;;;;5051787;28;19928;-89
2022/07/01 15:29:35;;;;;;;;;;;25.20;69.50;;;;;;5048811;28;19933;-88
2022/07/01 15:32:32;;;;;;;;;;;26.00;68.90;;;;;;5022809;28;19925;-88
2022/07/01 15:35:27;;;;;;;;;;;25.80;68.60;;;;;;5032881;28;19915;-88
2022/07/01 15:38:13;;;;;;;;;;;25.40;68.90;;;;;;5053276;28;19923;-87
2022/07/01 15:41:23;;;;;;;;;;;25.10;70.00;;;;;;5061329;28;19921;-87
2022/07/01 15:44:03;;;;;;;;;;;25.00;69.80;;;;;;5023650;28;19939;-87
2022/07/01 15:46:39;;;;;;;;;;;23.50;69.20;;;;;;5051802;28;19929;-87
2022/07/01 15:49:18;;;;;;;;;;;24.90;70.00;;;;;;5049841;28;20307;-87
2022/07/01 15:51:57;;;;;;;;;;;25.10;69.70;;;;;;5056847;28;19925;-89
2022/07/01 15:54:30;;;;;;;;;;;25.30;69.30;;;;;;5020042;28;19924;-88
2022/07/01 15:57:27;;;;;;;;;;;25.30;69.10;;;;;;5023519;28;19929;-88
2022/07/01 16:00:28;;;;;;;;;;;25.50;69.90;;;;;;5029920;28;19935;-88
2022/07/01 16:02:58;;;;;;;;;;;25.90;70.70;;;;;;5051583;28;19917;-89
2022/07/01 16:05:31;;;;;;;;;;;25.90;68.70;;;;;;5066246;28;19933;-86
2022/07/01 16:08:01;;;;;;;;;;;25.70;68.80;;;;;;5068050;28;19939;-86
2022/07/01 16:10:40;;;;;;;;;;;25.40;68.30;;;;;;5062384;28;19921;-87
2022/07/01 16:13:17;;;;;;;;;;;25.40;69.00;;;;;;5044558;28;19921;-89
2022/07/01 16:15:52;;;;;;;;;;;25.10;69.50;;;;;;5049341;28;19920;-87
2022/07/01 16:18:32;;;;;;;;;;;25.10;69.00;;;;;;5069185;28;19940;-88
2022/07/01 16:21:03;;;;;;;;;;;25.20;68.50;;;;;;5066931;28;19923;-87
2022/07/01 16:23:32;;;;;;;;;;;25.60;67.80;;;;;;5054265;28;19913;-86
2022/07/01 16:26:07;;;;;;;;;;;25.80;67.80;;;;;;5065974;28;19925;-88
2022/07/01 16:29:16;;;;;;;;;;;26.30;67.30;;;;;;5046656;28;19935;-86
2022/07/01 16:31:50;;;;;;;;;;;26.70;66.60;;;;;;5030171;28;19931;-87
2022/07/01 16:34:23;;;;;;;;;;;26.20;66.80;;;;;;5051306;28;19933;-89
2022/07/01 16:36:55;;;;;;;;;;;25.80;66.70;;;;;;4711013;28;10000062;-86
2022/07/01 16:39:25;;;;;;;;;;;25.70;66.60;;;;;;5047215;28;19932;-88
2022/07/01 16:42:07;;;;;;;;;;;25.60;66.90;;;;;;5031919;28;19938;-87
2022/07/01 16:44:45;;;;;;;;;;;25.30;67.30;;;;;;5044053;28;19929;-87
2022/07/01 16:47:25;;;;;;;;;;;24.90;67.60;;;;;;5061448;28;19931;-85
2022/07/01 16:50:13;;;;;;;;;;;26.20;69.10;;;;;;5052178;28;19939;-86
2022/07/01 16:52:48;;;;;;;;;;;24.00;69.10;;;;;;5060511;28;19939;-88
2022/07/01 16:55:27;;;;;;;;;;;23.50;70.00;;;;;;5043805;28;19925;-87
2022/07/01 16:58:03;;;;;;;;;;;23.10;70.60;;;;;;5021774;23;19916;-89
2022/07/01 17:01:10;;;;;;;;;;;23.10;71.20;;;;;;5050795;28;19936;-91
2022/07/01 17:04:06;;;;;;;;;;;22.70;71.50;;;;;;5051660;28;20410;-91
2022/07/01 17:07:35;;;;;;;;;;;23.20;71.70;;;;;;5039189;28;19944;-91
2022/07/01 17:11:28;;;;;;;;;;;;;;;;;;;;;
2022/07/01 17:14:47;;;;;;;;;;;23.40;70.60;;;;;;5014480;28;19922;-88
2022/07/01 17:17:44;;;;;;;;;;;23.90;71.60;;;;;;5022674;28;19929;-89
2022/07/01 17:20:17;;;;;;;;;;;23.40;72.60;;;;;;4992699;28;19929;-88
2022/07/01 17:23:09;;;;;;;;;;;23.60;71.20;;;;;;4997700;28;19935;-88
2022/07/01 17:25:58;;;;;;;;;;;24.40;70.50;;;;;;4994513;28;19934;-88
2022/07/01 17:29:39;;;;;;;;;;;24.40;69.60;;;;;;4995617;28;19943;-87
2022/07/01 17:32:28;;;;;;;;;;;24.50;68.00;;;;;;4970144;28;19921;-84
2022/07/01 17:35:07;;;;;;;;;;;23.70;67.70;;;;;;4999232;28;19934;-85
2022/07/01 17:38:32;;;;;;;;;;;24.40;67.90;;;;;;5010473;28;20402;-84
2022/07/01 17:41:34;;;;;;;;;;;25.40;68.70;;;;;;4982150;28;20008;-83
2022/07/01 17:44:07;;;;;;;;;;;24.60;67.80;;;;;;4979127;28;19929;-83
2022/07/01 17:46:57;;;;;;;;;;;24.50;68.00;;;;;;5016944;28;19933;-83
2022/07/01 17:49:28;;;;;;;;;;;24.60;68.50;;;;;;4997522;28;19936;-80
2022/07/01 17:52:05;;;;;;;;;;;24.20;69.30;;;;;;4983553;28;19925;-83
2022/07/01 17:55:20;;;;;;;;;;;24.20;70.00;;;;;;4995083;28;19936;-84
2022/07/01 17:58:32;;;;;;;;;;;23.90;69.30;;;;;;4964827;28;19929;-84
2022/07/01 18:01:18;;;;;;;;;;;23.40;70.20;;;;;;5002470;28;19936;-84
2022/07/01 18:04:06;;;;;;;;;;;22.90;71.70;;;;;;4986859;28;19934;-83
2022/07/01 18:06:41;;;;;;;;;;;22.60;71.70;;;;;;4998253;28;19926;-85
2022/07/01 18:09:58;;;;;;;;;;;22.00;72.80;;;;;;4986823;28;19926;-84
2022/07/01 18:12:42;;;;;;;;;;;20.60;72.40;;;;;;4981035;28;19933;-84
2022/07/01 18:15:18;;;;;;;;;;;22.00;72.60;;;;;;4965773;28;19927;-84
2022/07/01 18:17:58;;;;;;;;;;;21.80;73.50;;;;;;4951660;28;19942;-83
2022/07/01 18:21:02;;;;;;;;;;;21.80;73.20;;;;;;4950149;28;19936;-84
2022/07/01 18:23:48;;;;;;;;;;;;;;;;;;;;;
2022/07/01 18:26:28;;;;;;;;;;;22.70;73.30;;;;;;4952009;28;19935;-84
2022/07/01 18:29:09;;;;;;;;;;;;;;;;;;;;;
2022/07/01 18:31:44;;;;;;;;;;;23.80;71.80;;;;;;4949613;28;19940;-84
2022/07/01 18:34:37;;;;;;;;;;;24.20;70.60;;;;;;4967472;28;20023;-83
2022/07/01 18:37:13;;;;;;;;;;;23.10;69.10;;;;;;4952252;28;19940;-84
2022/07/01 18:40:27;;;;;;;;;;;24.30;69.70;;;;;;4963651;28;19937;-83
2022/07/01 18:43:10;;;;;;;;;;;24.00;70.50;;;;;;4986317;28;19930;-83
2022/07/01 18:45:49;;;;;;;;;;;23.20;70.40;;;;;;4967208;28;19934;-82
2022/07/01 18:48:39;;;;;;;;;;;22.60;71.20;;;;;;4970792;28;19930;-82
2022/07/01 18:51:15;;;;;;;;;;;23.00;74.20;;;;;;4950967;28;19927;-83
2022/07/01 18:53:47;;;;;;;;;;;21.90;72.50;;;;;;4970110;28;19930;-83
2022/07/01 18:56:18;;;;;;;;;;;21.30;73.10;;;;;;4988438;28;19926;-84
2022/07/01 18:58:48;;;;;;;;;;;21.10;73.50;;;;;;4973828;28;19934;-82
2022/07/01 19:01:28;;;;;;;;;;;21.70;76.10;;;;;;4954133;28;19926;-83
2022/07/01 19:04:28;;;;;;;;;;;21.30;74.30;;;;;;4959167;28;19930;-84
2022/07/01 19:07:09;;;;;;;;;;;20.50;74.00;;;;;;4984324;28;19945;-85
2022/07/01 19:09:44;;;;;;;;;;;20.50;74.50;;;;;;4971722;28;19945;-84
2022/07/01 19:12:22;;;;;;;;;;;19.40;75.40;;;;;;4970094;28;19936;-86
2022/07/01 19:14:57;;;;;;;;;;;20.10;74.80;;;;;;4990966;28;19926;-84
2022/07/01 19:17:25;;;;;;;;;;;19.90;75.50;;;;;;5002761;28;19922;-83
2022/07/01 19:19:55;;;;;;;;;;;18.40;75.80;;;;;;5003935;28;20044;-83
2022/07/01 19:22:45;;;;;;;;;;;20.10;76.90;;;;;;4977329;28;19934;-83
2022/07/01 19:25:21;;;;;;;;;;;19.50;76.50;;;;;;5004985;28;19926;-83
2022/07/01 19:28:02;;;;;;;;;;;20.10;78.10;;;;;;4975965;28;19930;-84
2022/07/01 19:30:34;;;;;;;;;;;19.50;77.20;;;;;;4991588;28;19941;-84
2022/07/01 19:33:21;;;;;;;;;;;19.30;77.70;;;;;;4976017;28;19926;-83
2022/07/01 19:35:51;;;;;;;;;;;19.40;77.50;;;;;;5005037;28;19930;-84
2022/07/01 19:38:27;;;;;;;;;;;18.90;77.70;;;;;;5009170;28;19920;-84
2022/07/01 19:41:06;;;;;;;;;;;18.80;77.90;;;;;;4990531;28;19916;-85
2022/07/01 19:43:41;;;;;;;;;;;18.80;78.40;;;;;;4991696;28;19936;-84
2022/07/01 19:46:16;;;;;;;;;;;18.70;78.30;;;;;;5005952;28;20033;-83
2022/07/01 19:48:50;;;;;;;;;;;18.70;78.60;;;;;;4990728;28;19925;-83
2022/07/01 19:51:22;;;;;;;;;;;19.00;78.30;;;;;;5007019;28;19929;-84
2022/07/01 19:54:05;;;;;;;;;;;18.70;78.70;;;;;;4975824;28;19926;-84
2022/07/01 19:56:44;;;;;;;;;;;18.50;78.70;;;;;;4975494;28;19913;-84
2022/07/01 19:59:21;;;;;;;;;;;18.60;79.70;;;;;;4986910;28;19936;-83
2022/07/01 20:01:51;;;;;;;;;;;18.30;79.90;;;;;;4990862;28;19933;-83
2022/07/01 20:04:22;;;;;;;;;;;18.30;79.90;;;;;;4990524;28;19926;-83
2022/07/01 20:06:52;;;;;;;;;;;18.90;80.00;;;;;;5008673;28;19925;-83
2022/07/01 20:09:25;;;;;;;;;;;18.20;80.30;;;;;;4991001;28;19930;-83
2022/07/01 20:12:00;;;;;;;;;;;18.20;80.60;;;;;;4958194;28;19930;-83
2022/07/01 20:14:29;;;;;;;;;;;18.10;81.10;;;;;;4970574;28;19930;-82
2022/07/01 20:17:05;;;;;;;;;;;18.60;81.50;;;;;;5007218;28;19926;-83
2022/07/01 20:19:36;;;;;;;;;;;18.00;81.80;;;;;;5004322;28;19930;-82
2022/07/01 20:22:09;;;;;;;;;;;18.00;81.60;;;;;;4973207;28;19955;-83
2022/07/01 20:24:38;;;;;;;;;;;17.90;82.00;;;;;;4988169;28;19918;-83
2022/07/01 20:27:17;;;;;;;;;;;17.80;82.90;;;;;;4988648;28;19925;-81
2022/07/01 20:29:45;;;;;;;;;;;16.50;82.00;;;;;;4975140;28;19929;-83
2022/07/01 20:32:13;;;;;;;;;;;17.70;83.40;;;;;;4990816;28;19926;-83
2022/07/01 20:34:44;;;;;;;;;;;17.60;83.40;;;;;;4991871;28;19926;-82
2022/07/01 20:37:12;;;;;;;;;;;17.50;82.90;;;;;;4986012;28;20200;-83
2022/07/01 20:39:41;;;;;;;;;;;17.50;83.70;;;;;;4986102;28;19936;-83
2022/07/01 20:42:09;;;;;;;;;;;17.50;84.80;;;;;;4989345;28;19940;-84
2022/07/01 20:44:37;;;;;;;;;;;17.40;84.60;;;;;;4989336;28;19951;-84
2022/07/01 20:47:09;;;;;;;;;;;17.40;84.10;;;;;;4990433;28;19925;-82
2022/07/01 20:49:40;;;;;;;;;;;17.30;83.70;;;;;;4970066;28;19929;-83
2022/07/01 20:52:16;;;;;;;;;;;17.30;84.70;;;;;;4987901;28;19936;-83
2022/07/01 20:54:46;;;;;;;;;;;17.50;85.80;;;;;;4986316;28;19940;-83
2022/07/01 20:57:28;;;;;;;;;;;16.80;85.30;;;;;;4958430;28;19926;-82
2022/07/01 20:59:56;;;;;;;;;;;17.10;86.20;;;;;;5004067;28;19926;-82
2022/07/01 21:02:28;;;;;;;;;;;17.00;85.50;;;;;;4986381;28;19934;-81
2022/07/01 21:05:10;;;;;;;;;;;16.80;85.90;;;;;;4989622;28;19936;-82
2022/07/01 21:07:40;;;;;;;;;;;17.10;87.80;;;;;;4977967;28;19930;-82
2022/07/01 21:10:09;;;;;;;;;;;16.90;87.10;;;;;;4990411;28;19929;-83
2022/07/01 21:12:38;;;;;;;;;;;15.80;87.00;;;;;;4990218;28;19926;-82
2022/07/01 21:15:06;;;;;;;;;;;16.80;86.60;;;;;;4970250;28;19930;-82
2022/07/01 21:17:34;;;;;;;;;;;16.70;87.30;;;;;;5008573;28;19932;-82
2022/07/01 21:20:09;;;;;;;;;;;17.30;89.40;;;;;;4987082;28;20139;-82
2022/07/01 21:22:38;;;;;;;;;;;16.70;88.00;;;;;;4975386;28;19930;-82
2022/07/01 21:25:07;;;;;;;;;;;16.60;87.80;;;;;;4989496;28;19948;-82
2022/07/01 21:27:36;;;;;;;;;;;16.60;87.60;;;;;;4970995;28;19926;-82
2022/07/01 21:30:05;;;;;;;;;;;16.60;87.60;;;;;;5004251;28;19937;-80
2022/07/01 21:32:33;;;;;;;;;;;16.50;88.20;;;;;;4989855;28;19934;-81
2022/07/01 21:35:03;;;;;;;;;;;16.50;88.20;;;;;;5004872;28;19934;-82
2022/07/01 21:37:32;;;;;;;;;;;16.70;88.90;;;;;;4988197;28;19925;-82
2022/07/01 21:40:00;;;;;;;;;;;16.40;88.10;;;;;;4990642;28;19925;-81
2022/07/01 21:42:30;;;;;;;;;;;16.50;88.60;;;;;;4990171;28;19925;-81
2022/07/01 21:44:58;;;;;;;;;;;16.40;89.00;;;;;;5005047;28;19929;-82
2022/07/01 21:47:32;;;;;;;;;;;16.30;89.60;;;;;;4988741;28;19929;-82
2022/07/01 21:50:12;;;;;;;;;;;16.30;89.80;;;;;;4972126;28;19937;-82
2022/07/01 21:52:41;;;;;;;;;;;16.20;89.80;;;;;;4973980;28;19926;-81
2022/07/01 21:55:09;;;;;;;;;;;16.10;90.00;;;;;;5001561;28;20010;-82
2022/07/01 21:57:41;;;;;;;;;;;16.10;90.20;;;;;;4990831;28;19930;-81
2022/07/01 22:00:13;;;;;;;;;;;16.00;90.30;;;;;;4972230;28;19939;-81
2022/07/01 22:02:45;;;;;;;;;;;16.00;90.40;;;;;;4996194;28;19932;-82
2022/07/01 22:05:15;;;;;;;;;;;15.90;90.90;;;;;;4990896;28;19914;-82
2022/07/01 22:07:45;;;;;;;;;;;15.80;91.00;;;;;;4992292;28;19948;-81
2022/07/01 22:10:16;;;;;;;;;;;15.80;90.60;;;;;;5005430;28;19926;-82
2022/07/01 22:12:49;;;;;;;;;;;15.80;91.10;;;;;;4988285;28;19933;-82
2022/07/01 22:15:17;;;;;;;;;;;15.80;90.80;;;;;;5000077;28;19926;-81
2022/07/01 22:17:48;;;;;;;;;;;15.90;91.10;;;;;;5005317;28;19936;-82
2022/07/01 22:20:16;;;;;;;;;;;15.70;91.20;;;;;;4988897;28;19930;-82
2022/07/01 22:22:48;;;;;;;;;;;15.60;91.20;;;;;;5007437;28;20219;-82
2022/07/01 22:25:18;;;;;;;;;;;15.60;91.30;;;;;;4956112;28;19926;-82
2022/07/01 22:27:47;;;;;;;;;;;15.50;91.90;;;;;;4992318;28;19933;-82
2022/07/01 22:30:15;;;;;;;;;;;15.40;91.70;;;;;;4987599;28;19932;-82
2022/07/01 22:32:43;;;;;;;;;;;15.40;91.90;;;;;;4988995;28;19932;-81
2022/07/01 22:35:11;;;;;;;;;;;15.40;91.90;;;;;;4987487;28;19926;-83
2022/07/01 22:37:39;;;;;;;;;;;15.40;92.20;;;;;;4987561;28;19928;-82
2022/07/01 22:40:12;;;;;;;;;;;13.70;91.90;;;;;;5004661;28;19937;-82
2022/07/01 22:42:40;;;;;;;;;;;15.20;92.10;;;;;;4968522;28;19932;-82
2022/07/01 22:45:11;;;;;;;;;;;15.30;92.50;;;;;;4972235;28;19930;-81
2022/07/01 22:47:41;;;;;;;;;;;15.20;92.90;;;;;;4983678;28;19926;-82
2022/07/01 22:50:16;;;;;;;;;;;15.20;92.90;;;;;;4968933;28;19930;-82
2022/07/01 22:53:05;;;;;;;;;;;15.20;93.20;;;;;;4987125;28;19934;-81
2022/07/01 22:55:41;;;;;;;;;;;15.10;92.80;;;;;;4984165;28;19940;-81
2022/07/01 22:58:15;;;;;;;;;;;15.10;93.00;;;;;;4982428;28;19945;-81
2022/07/01 23:00:51;;;;;;;;;;;15.10;93.50;;;;;;4975748;28;20399;-81
2022/07/01 23:03:28;;;;;;;;;;;15.00;93.70;;;;;;4976665;28;19926;-82
2022/07/01 23:05:56;;;;;;;;;;;15.00;93.70;;;;;;4992110;28;19937;-82
2022/07/01 23:08:34;;;;;;;;;;;15.10;94.00;;;;;;5007957;28;19925;-82
2022/07/01 23:11:04;;;;;;;;;;;15.60;93.80;;;;;;4991298;28;19926;-82
2022/07/01 23:13:37;;;;;;;;;;;14.90;94.40;;;;;;4978797;28;19945;-81
2022/07/01 23:16:27;;;;;;;;;;;14.90;94.20;;;;;;4942263;28;19930;-82
2022/07/01 23:18:56;;;;;;;;;;;14.80;94.70;;;;;;4984064;28;19935;-81
2022/07/01 23:21:25;;;;;;;;;;;14.80;94.40;;;;;;5002905;28;19926;-82
2022/07/01 23:24:01;;;;;;;;;;;14.80;94.50;;;;;;4990109;28;19944;-81
2022/07/01 23:26:30;;;;;;;;;;;14.80;94.80;;;;;;4989055;28;19930;-81
2022/07/01 23:28:58;;;;;;;;;;;14.80;94.80;;;;;;4973572;28;19936;-81
2022/07/01 23:31:29;;;;;;;;;;;14.80;94.90;;;;;;4992152;28;19926;-83
2022/07/01 23:33:58;;;;;;;;;;;14.70;94.80;;;;;;4973010;28;19936;-82
2022/07/01 23:36:27;;;;;;;;;;;14.70;95.50;;;;;;4977803;28;19934;-82
2022/07/01 23:38:59;;;;;;;;;;;14.60;95.30;;;;;;4974193;28;19937;-82
2022/07/01 23:41:30;;;;;;;;;;;14.60;96.00;;;;;;4952976;28;19924;-82
2022/07/01 23:44:00;;;;;;;;;;;14.70;96.30;;;;;;4975279;28;19926;-81
2022/07/01 23:46:28;;;;;;;;;;;14.50;95.80;;;;;;4971749;28;19930;-82
2022/07/01 23:48:57;;;;;;;;;;;14.50;96.30;;;;;;4965804;28;19934;-82
2022/07/01 23:51:30;;;;;;;;;;;14.40;96.50;;;;;;4968993;28;19926;-82
2022/07/01 23:53:58;;;;;;;;;;;16.20;98.00;;;;;;4985156;28;19942;-83
2022/07/01 23:56:31;;;;;;;;;;;14.40;97.10;;;;;;4987659;28;19940;-82
2022/07/01 23:59:20;;;;;;;;;;;14.30;97.80;;;;;;4953565;28;19926;-82
